sensor_id;sensor_type;location;lat;lon;timestamp;P1;durP1;ratioP1;P2;durP2;ratioP2
55270;SDS011;41132;47.162;9.470;2022-08-27T00:02:17;6.97;;;3.38;;
55270;SDS011;41132;47.162;9.470;2022-08-27T00:04:43;8.20;;;3.50;;
55270;SDS011;41132;47.162;9.470;2022-08-27T00:07:08;5.88;;;3.00;;
55270;SDS011;41132;47.162;9.470;2022-08-27T00:09:36;6.68;;;3.47;;
55270;SDS011;41132;47.162;9.470;2022-08-27T00:12:03;5.63;;;3.03;;
55270;SDS011;41132;47.162;9.470;2022-08-27T00:14:29;6.15;;;3.25;;
55270;SDS011;41132;47.162;9.470;2022-08-27T00:16:55;7.10;;;3.50;;
55270;SDS011;41132;47.162;9.470;2022-08-27T00:19:21;5.80;;;3.03;;
55270;SDS011;41132;47.162;9.470;2022-08-27T00:21:47;7.57;;;3.90;;
55270;SDS011;41132;47.162;9.470;2022-08-27T00:24:12;7.00;;;3.67;;
55270;SDS011;41132;47.162;9.470;2022-08-27T00:26:38;5.97;;;3.95;;
55270;SDS011;41132;47.162;9.470;2022-08-27T00:29:04;6.20;;;3.85;;
55270;SDS011;41132;47.162;9.470;2022-08-27T00:31:30;7.28;;;3.30;;
55270;SDS011;41132;47.162;9.470;2022-08-27T00:33:55;5.93;;;2.92;;
55270;SDS011;41132;47.162;9.470;2022-08-27T00:36:21;5.82;;;3.60;;
55270;SDS011;41132;47.162;9.470;2022-08-27T00:38:47;6.40;;;3.30;;
55270;SDS011;41132;47.162;9.470;2022-08-27T00:41:13;5.78;;;3.10;;
55270;SDS011;41132;47.162;9.470;2022-08-27T00:43:44;7.47;;;3.17;;
55270;SDS011;41132;47.162;9.470;2022-08-27T00:46:34;6.43;;;3.00;;
55270;SDS011;41132;47.162;9.470;2022-08-27T00:49:04;7.30;;;3.40;;
55270;SDS011;41132;47.162;9.470;2022-08-27T00:51:59;6.53;;;2.80;;
55270;SDS011;41132;47.162;9.470;2022-08-27T00:54:46;7.57;;;3.17;;
55270;SDS011;41132;47.162;9.470;2022-08-27T00:57:12;6.15;;;3.03;;
55270;SDS011;41132;47.162;9.470;2022-08-27T00:59:40;5.40;;;3.20;;
55270;SDS011;41132;47.162;9.470;2022-08-27T01:02:06;6.53;;;3.40;;
55270;SDS011;41132;47.162;9.470;2022-08-27T01:05:26;7.57;;;2.97;;
55270;SDS011;41132;47.162;9.470;2022-08-27T01:07:39;5.57;;;2.92;;
55270;SDS011;41132;47.162;9.470;2022-08-27T01:10:08;5.45;;;3.22;;
55270;SDS011;41132;47.162;9.470;2022-08-27T01:12:36;6.05;;;3.08;;
55270;SDS011;41132;47.162;9.470;2022-08-27T01:15:06;5.57;;;3.22;;
55270;SDS011;41132;47.162;9.470;2022-08-27T01:17:35;6.45;;;3.20;;
55270;SDS011;41132;47.162;9.470;2022-08-27T01:20:03;7.70;;;3.17;;
55270;SDS011;41132;47.162;9.470;2022-08-27T01:22:43;5.65;;;3.15;;
55270;SDS011;41132;47.162;9.470;2022-08-27T01:25:16;7.45;;;3.58;;
55270;SDS011;41132;47.162;9.470;2022-08-27T01:27:44;8.02;;;3.65;;
55270;SDS011;41132;47.162;9.470;2022-08-27T01:30:12;5.53;;;3.13;;
55270;SDS011;41132;47.162;9.470;2022-08-27T01:32:40;5.15;;;2.80;;
55270;SDS011;41132;47.162;9.470;2022-08-27T01:35:08;7.38;;;3.00;;
55270;SDS011;41132;47.162;9.470;2022-08-27T01:37:34;5.25;;;2.75;;
55270;SDS011;41132;47.162;9.470;2022-08-27T01:40:01;5.43;;;2.72;;
55270;SDS011;41132;47.162;9.470;2022-08-27T01:42:30;5.50;;;2.70;;
55270;SDS011;41132;47.162;9.470;2022-08-27T01:45:09;5.35;;;3.10;;
55270;SDS011;41132;47.162;9.470;2022-08-27T01:47:41;6.00;;;3.17;;
55270;SDS011;41132;47.162;9.470;2022-08-27T01:50:08;5.80;;;3.20;;
55270;SDS011;41132;47.162;9.470;2022-08-27T01:52:36;6.03;;;3.03;;
55270;SDS011;41132;47.162;9.470;2022-08-27T01:55:03;6.82;;;3.05;;
55270;SDS011;41132;47.162;9.470;2022-08-27T01:57:30;6.72;;;3.63;;
55270;SDS011;41132;47.162;9.470;2022-08-27T01:59:56;6.15;;;4.00;;
55270;SDS011;41132;47.162;9.470;2022-08-27T02:02:22;5.75;;;3.50;;
55270;SDS011;41132;47.162;9.470;2022-08-27T02:04:47;6.53;;;3.55;;
55270;SDS011;41132;47.162;9.470;2022-08-27T02:07:14;5.85;;;3.10;;
55270;SDS011;41132;47.162;9.470;2022-08-27T02:09:40;5.47;;;3.20;;
55270;SDS011;41132;47.162;9.470;2022-08-27T02:12:06;6.53;;;3.13;;
55270;SDS011;41132;47.162;9.470;2022-08-27T02:14:31;6.28;;;3.20;;
55270;SDS011;41132;47.162;9.470;2022-08-27T02:16:57;6.25;;;2.70;;
55270;SDS011;41132;47.162;9.470;2022-08-27T02:19:22;5.22;;;2.80;;
55270;SDS011;41132;47.162;9.470;2022-08-27T02:21:48;6.60;;;2.92;;
55270;SDS011;41132;47.162;9.470;2022-08-27T02:24:14;4.93;;;2.40;;
55270;SDS011;41132;47.162;9.470;2022-08-27T02:26:40;7.05;;;2.70;;
55270;SDS011;41132;47.162;9.470;2022-08-27T02:29:06;5.20;;;2.80;;
55270;SDS011;41132;47.162;9.470;2022-08-27T02:31:31;5.32;;;2.70;;
55270;SDS011;41132;47.162;9.470;2022-08-27T02:33:57;5.35;;;2.83;;
55270;SDS011;41132;47.162;9.470;2022-08-27T02:36:23;5.40;;;2.83;;
55270;SDS011;41132;47.162;9.470;2022-08-27T02:38:49;6.03;;;3.40;;
55270;SDS011;41132;47.162;9.470;2022-08-27T02:41:15;5.47;;;3.42;;
55270;SDS011;41132;47.162;9.470;2022-08-27T02:43:41;6.47;;;3.40;;
55270;SDS011;41132;47.162;9.470;2022-08-27T02:46:07;6.03;;;3.60;;
55270;SDS011;41132;47.162;9.470;2022-08-27T02:48:34;6.07;;;3.72;;
55270;SDS011;41132;47.162;9.470;2022-08-27T02:51:01;6.78;;;4.30;;
55270;SDS011;41132;47.162;9.470;2022-08-27T02:53:29;8.60;;;4.68;;
55270;SDS011;41132;47.162;9.470;2022-08-27T02:55:54;5.85;;;3.83;;
55270;SDS011;41132;47.162;9.470;2022-08-27T02:58:19;6.10;;;4.05;;
55270;SDS011;41132;47.162;9.470;2022-08-27T03:00:45;6.78;;;3.88;;
55270;SDS011;41132;47.162;9.470;2022-08-27T03:03:10;6.38;;;3.72;;
55270;SDS011;41132;47.162;9.470;2022-08-27T03:05:36;8.30;;;3.97;;
55270;SDS011;41132;47.162;9.470;2022-08-27T03:08:02;6.72;;;3.83;;
55270;SDS011;41132;47.162;9.470;2022-08-27T03:10:29;6.53;;;4.30;;
55270;SDS011;41132;47.162;9.470;2022-08-27T03:12:54;7.75;;;4.20;;
55270;SDS011;41132;47.162;9.470;2022-08-27T03:15:20;6.57;;;3.85;;
55270;SDS011;41132;47.162;9.470;2022-08-27T03:17:46;7.35;;;4.25;;
55270;SDS011;41132;47.162;9.470;2022-08-27T03:20:30;6.32;;;4.10;;
55270;SDS011;41132;47.162;9.470;2022-08-27T03:22:57;6.30;;;4.07;;
55270;SDS011;41132;47.162;9.470;2022-08-27T03:25:23;8.57;;;4.30;;
55270;SDS011;41132;47.162;9.470;2022-08-27T03:27:48;6.32;;;4.07;;
55270;SDS011;41132;47.162;9.470;2022-08-27T03:30:15;7.85;;;4.43;;
55270;SDS011;41132;47.162;9.470;2022-08-27T03:32:43;8.38;;;4.68;;
55270;SDS011;41132;47.162;9.470;2022-08-27T03:35:09;10.43;;;5.95;;
55270;SDS011;41132;47.162;9.470;2022-08-27T03:37:35;7.82;;;5.07;;
55270;SDS011;41132;47.162;9.470;2022-08-27T03:40:01;9.68;;;4.88;;
55270;SDS011;41132;47.162;9.470;2022-08-27T03:42:28;9.75;;;5.22;;
55270;SDS011;41132;47.162;9.470;2022-08-27T03:44:53;7.13;;;4.63;;
55270;SDS011;41132;47.162;9.470;2022-08-27T03:47:19;7.28;;;4.75;;
55270;SDS011;41132;47.162;9.470;2022-08-27T03:49:46;8.30;;;5.13;;
55270;SDS011;41132;47.162;9.470;2022-08-27T03:52:11;7.80;;;4.32;;
55270;SDS011;41132;47.162;9.470;2022-08-27T03:54:38;6.88;;;4.45;;
55270;SDS011;41132;47.162;9.470;2022-08-27T03:57:04;7.15;;;4.63;;
55270;SDS011;41132;47.162;9.470;2022-08-27T03:59:30;7.47;;;4.90;;
55270;SDS011;41132;47.162;9.470;2022-08-27T04:01:55;8.27;;;4.63;;
55270;SDS011;41132;47.162;9.470;2022-08-27T04:04:21;6.05;;;3.72;;
55270;SDS011;41132;47.162;9.470;2022-08-27T04:06:48;6.75;;;4.38;;
55270;SDS011;41132;47.162;9.470;2022-08-27T04:09:14;7.03;;;4.03;;
55270;SDS011;41132;47.162;9.470;2022-08-27T04:11:40;5.50;;;3.67;;
55270;SDS011;41132;47.162;9.470;2022-08-27T04:14:06;7.32;;;3.95;;
55270;SDS011;41132;47.162;9.470;2022-08-27T04:16:32;7.00;;;3.60;;
55270;SDS011;41132;47.162;9.470;2022-08-27T04:18:58;6.68;;;3.53;;
55270;SDS011;41132;47.162;9.470;2022-08-27T04:21:23;6.15;;;3.63;;
55270;SDS011;41132;47.162;9.470;2022-08-27T04:23:48;6.15;;;3.55;;
55270;SDS011;41132;47.162;9.470;2022-08-27T04:26:14;6.82;;;3.78;;
55270;SDS011;41132;47.162;9.470;2022-08-27T04:28:40;5.75;;;3.47;;
55270;SDS011;41132;47.162;9.470;2022-08-27T04:31:06;6.30;;;3.30;;
55270;SDS011;41132;47.162;9.470;2022-08-27T04:33:32;5.10;;;3.00;;
55270;SDS011;41132;47.162;9.470;2022-08-27T04:36:02;6.05;;;3.15;;
55270;SDS011;41132;47.162;9.470;2022-08-27T04:38:30;6.00;;;3.58;;
55270;SDS011;41132;47.162;9.470;2022-08-27T04:40:56;5.65;;;3.22;;
55270;SDS011;41132;47.162;9.470;2022-08-27T04:43:40;6.03;;;3.63;;
55270;SDS011;41132;47.162;9.470;2022-08-27T04:46:05;5.45;;;3.10;;
55270;SDS011;41132;47.162;9.470;2022-08-27T04:48:31;5.43;;;2.95;;
55270;SDS011;41132;47.162;9.470;2022-08-27T04:50:56;5.30;;;2.75;;
55270;SDS011;41132;47.162;9.470;2022-08-27T04:53:22;6.93;;;3.08;;
55270;SDS011;41132;47.162;9.470;2022-08-27T04:55:49;5.13;;;2.95;;
55270;SDS011;41132;47.162;9.470;2022-08-27T04:58:16;5.82;;;2.95;;
55270;SDS011;41132;47.162;9.470;2022-08-27T05:00:45;4.90;;;2.70;;
55270;SDS011;41132;47.162;9.470;2022-08-27T05:03:13;5.35;;;2.40;;
55270;SDS011;41132;47.162;9.470;2022-08-27T05:05:43;5.55;;;2.83;;
55270;SDS011;41132;47.162;9.470;2022-08-27T05:08:09;4.90;;;2.60;;
55270;SDS011;41132;47.162;9.470;2022-08-27T05:10:48;5.18;;;2.70;;
55270;SDS011;41132;47.162;9.470;2022-08-27T05:13:15;6.07;;;2.67;;
55270;SDS011;41132;47.162;9.470;2022-08-27T05:15:45;5.72;;;3.00;;
55270;SDS011;41132;47.162;9.470;2022-08-27T05:18:11;5.20;;;2.70;;
55270;SDS011;41132;47.162;9.470;2022-08-27T05:20:44;5.85;;;2.60;;
55270;SDS011;41132;47.162;9.470;2022-08-27T05:23:12;5.20;;;2.75;;
55270;SDS011;41132;47.162;9.470;2022-08-27T05:25:38;5.43;;;3.00;;
55270;SDS011;41132;47.162;9.470;2022-08-27T05:28:05;5.72;;;2.92;;
55270;SDS011;41132;47.162;9.470;2022-08-27T05:30:38;5.85;;;3.45;;
55270;SDS011;41132;47.162;9.470;2022-08-27T05:33:06;7.05;;;4.05;;
55270;SDS011;41132;47.162;9.470;2022-08-27T05:35:38;6.00;;;3.80;;
55270;SDS011;41132;47.162;9.470;2022-08-27T05:38:08;5.95;;;3.70;;
55270;SDS011;41132;47.162;9.470;2022-08-27T05:40:34;5.75;;;3.42;;
55270;SDS011;41132;47.162;9.470;2022-08-27T05:42:59;5.32;;;3.30;;
55270;SDS011;41132;47.162;9.470;2022-08-27T05:45:25;6.00;;;3.80;;
55270;SDS011;41132;47.162;9.470;2022-08-27T05:47:50;8.65;;;3.42;;
55270;SDS011;41132;47.162;9.470;2022-08-27T05:50:16;5.72;;;3.80;;
55270;SDS011;41132;47.162;9.470;2022-08-27T05:52:41;5.50;;;3.40;;
55270;SDS011;41132;47.162;9.470;2022-08-27T05:55:07;6.32;;;3.75;;
55270;SDS011;41132;47.162;9.470;2022-08-27T05:57:33;6.10;;;4.05;;
55270;SDS011;41132;47.162;9.470;2022-08-27T05:59:58;6.30;;;3.53;;
55270;SDS011;41132;47.162;9.470;2022-08-27T06:02:42;6.55;;;3.50;;
55270;SDS011;41132;47.162;9.470;2022-08-27T06:05:09;7.10;;;4.03;;
55270;SDS011;41132;47.162;9.470;2022-08-27T06:07:35;6.78;;;3.88;;
55270;SDS011;41132;47.162;9.470;2022-08-27T06:10:00;6.03;;;3.80;;
55270;SDS011;41132;47.162;9.470;2022-08-27T06:12:26;6.32;;;4.13;;
55270;SDS011;41132;47.162;9.470;2022-08-27T06:14:51;6.30;;;4.10;;
55270;SDS011;41132;47.162;9.470;2022-08-27T06:17:17;6.63;;;4.20;;
55270;SDS011;41132;47.162;9.470;2022-08-27T06:19:42;6.38;;;4.40;;
55270;SDS011;41132;47.162;9.470;2022-08-27T06:22:09;7.07;;;4.72;;
55270;SDS011;41132;47.162;9.470;2022-08-27T06:24:35;7.07;;;4.70;;
55270;SDS011;41132;47.162;9.470;2022-08-27T06:27:02;6.75;;;4.70;;
55270;SDS011;41132;47.162;9.470;2022-08-27T06:29:28;7.47;;;5.03;;
55270;SDS011;41132;47.162;9.470;2022-08-27T06:31:53;8.27;;;5.30;;
55270;SDS011;41132;47.162;9.470;2022-08-27T06:34:20;9.93;;;5.57;;
55270;SDS011;41132;47.162;9.470;2022-08-27T06:36:45;7.03;;;4.78;;
55270;SDS011;41132;47.162;9.470;2022-08-27T06:39:11;8.32;;;5.38;;
55270;SDS011;41132;47.162;9.470;2022-08-27T06:41:38;7.13;;;5.20;;
55270;SDS011;41132;47.162;9.470;2022-08-27T06:44:04;7.13;;;4.90;;
55270;SDS011;41132;47.162;9.470;2022-08-27T06:46:30;7.70;;;5.03;;
55270;SDS011;41132;47.162;9.470;2022-08-27T06:48:56;7.78;;;5.20;;
55270;SDS011;41132;47.162;9.470;2022-08-27T06:51:24;8.82;;;5.30;;
55270;SDS011;41132;47.162;9.470;2022-08-27T06:53:52;7.88;;;4.85;;
55270;SDS011;41132;47.162;9.470;2022-08-27T06:56:19;7.30;;;5.30;;
55270;SDS011;41132;47.162;9.470;2022-08-27T06:58:45;7.88;;;4.40;;
55270;SDS011;41132;47.162;9.470;2022-08-27T07:01:15;8.30;;;5.32;;
55270;SDS011;41132;47.162;9.470;2022-08-27T07:03:42;7.68;;;5.05;;
55270;SDS011;41132;47.162;9.470;2022-08-27T07:06:09;8.27;;;5.55;;
55270;SDS011;41132;47.162;9.470;2022-08-27T07:08:36;9.73;;;5.63;;
55270;SDS011;41132;47.162;9.470;2022-08-27T07:11:03;6.80;;;4.85;;
55270;SDS011;41132;47.162;9.470;2022-08-27T07:13:29;7.80;;;5.10;;
55270;SDS011;41132;47.162;9.470;2022-08-27T07:15:55;9.07;;;5.07;;
55270;SDS011;41132;47.162;9.470;2022-08-27T07:18:21;7.93;;;5.30;;
55270;SDS011;41132;47.162;9.470;2022-08-27T07:20:47;7.53;;;5.43;;
55270;SDS011;41132;47.162;9.470;2022-08-27T07:23:12;7.95;;;5.35;;
55270;SDS011;41132;47.162;9.470;2022-08-27T07:25:39;8.45;;;5.03;;
55270;SDS011;41132;47.162;9.470;2022-08-27T07:28:05;7.28;;;5.38;;
55270;SDS011;41132;47.162;9.470;2022-08-27T07:30:31;8.48;;;5.30;;
55270;SDS011;41132;47.162;9.470;2022-08-27T07:32:57;8.38;;;5.30;;
55270;SDS011;41132;47.162;9.470;2022-08-27T07:35:22;9.10;;;5.05;;
55270;SDS011;41132;47.162;9.470;2022-08-27T07:37:47;7.95;;;4.82;;
55270;SDS011;41132;47.162;9.470;2022-08-27T07:40:13;7.30;;;4.70;;
55270;SDS011;41132;47.162;9.470;2022-08-27T07:42:40;9.75;;;4.50;;
55270;SDS011;41132;47.162;9.470;2022-08-27T07:45:25;8.00;;;4.50;;
55270;SDS011;41132;47.162;9.470;2022-08-27T07:47:51;7.00;;;4.40;;
55270;SDS011;41132;47.162;9.470;2022-08-27T07:50:17;8.57;;;6.10;;
55270;SDS011;41132;47.162;9.470;2022-08-27T07:52:43;7.80;;;5.70;;
55270;SDS011;41132;47.162;9.470;2022-08-27T07:55:12;6.70;;;4.55;;
55270;SDS011;41132;47.162;9.470;2022-08-27T07:57:38;7.55;;;4.15;;
55270;SDS011;41132;47.162;9.470;2022-08-27T08:00:05;7.10;;;3.75;;
55270;SDS011;41132;47.162;9.470;2022-08-27T08:02:34;6.22;;;3.83;;
55270;SDS011;41132;47.162;9.470;2022-08-27T08:04:59;7.07;;;4.20;;
55270;SDS011;41132;47.162;9.470;2022-08-27T08:07:25;5.70;;;3.40;;
55270;SDS011;41132;47.162;9.470;2022-08-27T08:09:50;7.50;;;4.28;;
55270;SDS011;41132;47.162;9.470;2022-08-27T08:12:15;5.70;;;3.65;;
55270;SDS011;41132;47.162;9.470;2022-08-27T08:14:41;6.47;;;3.80;;
55270;SDS011;41132;47.162;9.470;2022-08-27T08:17:06;5.72;;;3.70;;
55270;SDS011;41132;47.162;9.470;2022-08-27T08:19:32;5.90;;;3.70;;
55270;SDS011;41132;47.162;9.470;2022-08-27T08:21:58;6.22;;;3.90;;
55270;SDS011;41132;47.162;9.470;2022-08-27T08:24:24;6.22;;;3.55;;
55270;SDS011;41132;47.162;9.470;2022-08-27T08:26:49;6.15;;;3.40;;
55270;SDS011;41132;47.162;9.470;2022-08-27T08:29:15;7.43;;;3.70;;
55270;SDS011;41132;47.162;9.470;2022-08-27T08:31:40;5.97;;;3.47;;
55270;SDS011;41132;47.162;9.470;2022-08-27T08:34:06;6.28;;;4.10;;
55270;SDS011;41132;47.162;9.470;2022-08-27T08:36:32;6.78;;;3.95;;
55270;SDS011;41132;47.162;9.470;2022-08-27T08:38:57;6.45;;;3.45;;
55270;SDS011;41132;47.162;9.470;2022-08-27T08:44:18;6.25;;;3.88;;
55270;SDS011;41132;47.162;9.470;2022-08-27T08:50:16;7.85;;;3.80;;
55270;SDS011;41132;47.162;9.470;2022-08-27T09:00:56;6.43;;;3.92;;
55270;SDS011;41132;47.162;9.470;2022-08-27T09:03:24;5.97;;;2.70;;
55270;SDS011;41132;47.162;9.470;2022-08-27T09:05:55;6.10;;;3.40;;
55270;SDS011;41132;47.162;9.470;2022-08-27T09:13:38;7.15;;;3.47;;
55270;SDS011;41132;47.162;9.470;2022-08-27T09:16:06;6.07;;;3.50;;
55270;SDS011;41132;47.162;9.470;2022-08-27T09:18:34;7.63;;;3.35;;
55270;SDS011;41132;47.162;9.470;2022-08-27T09:26:29;6.22;;;3.30;;
55270;SDS011;41132;47.162;9.470;2022-08-27T09:29:00;8.38;;;4.75;;
55270;SDS011;41132;47.162;9.470;2022-08-27T09:31:40;5.88;;;3.45;;
55270;SDS011;41132;47.162;9.470;2022-08-27T09:34:24;7.22;;;3.13;;
55270;SDS011;41132;47.162;9.470;2022-08-27T09:39:28;5.03;;;2.75;;
55270;SDS011;41132;47.162;9.470;2022-08-27T09:41:58;6.25;;;3.20;;
55270;SDS011;41132;47.162;9.470;2022-08-27T09:44:23;5.05;;;2.60;;
55270;SDS011;41132;47.162;9.470;2022-08-27T09:46:59;5.88;;;2.70;;
55270;SDS011;41132;47.162;9.470;2022-08-27T09:49:27;7.55;;;2.90;;
55270;SDS011;41132;47.162;9.470;2022-08-27T09:51:53;9.13;;;2.83;;
55270;SDS011;41132;47.162;9.470;2022-08-27T09:54:54;5.15;;;2.60;;
55270;SDS011;41132;47.162;9.470;2022-08-27T09:57:13;5.30;;;2.63;;
55270;SDS011;41132;47.162;9.470;2022-08-27T09:59:50;5.40;;;3.03;;
55270;SDS011;41132;47.162;9.470;2022-08-27T10:02:19;6.47;;;3.05;;
55270;SDS011;41132;47.162;9.470;2022-08-27T10:04:47;6.55;;;3.50;;
55270;SDS011;41132;47.162;9.470;2022-08-27T10:10:09;5.80;;;3.20;;
55270;SDS011;41132;47.162;9.470;2022-08-27T10:15:36;6.50;;;3.13;;
55270;SDS011;41132;47.162;9.470;2022-08-27T10:18:13;6.10;;;2.95;;
55270;SDS011;41132;47.162;9.470;2022-08-27T10:21:18;5.70;;;3.38;;
55270;SDS011;41132;47.162;9.470;2022-08-27T10:29:32;5.85;;;3.40;;
55270;SDS011;41132;47.162;9.470;2022-08-27T10:32:15;7.10;;;3.78;;
55270;SDS011;41132;47.162;9.470;2022-08-27T10:51:34;6.15;;;3.17;;
55270;SDS011;41132;47.162;9.470;2022-08-27T10:54:18;5.50;;;3.10;;
55270;SDS011;41132;47.162;9.470;2022-08-27T11:02:23;5.70;;;3.30;;
55270;SDS011;41132;47.162;9.470;2022-08-27T11:05:00;5.68;;;3.40;;
55270;SDS011;41132;47.162;9.470;2022-08-27T11:07:50;7.20;;;3.22;;
55270;SDS011;41132;47.162;9.470;2022-08-27T11:10:25;6.80;;;3.30;;
55270;SDS011;41132;47.162;9.470;2022-08-27T11:12:55;5.68;;;3.30;;
55270;SDS011;41132;47.162;9.470;2022-08-27T11:15:49;5.82;;;3.03;;
55270;SDS011;41132;47.162;9.470;2022-08-27T11:18:36;6.03;;;3.15;;
55270;SDS011;41132;47.162;9.470;2022-08-27T11:21:12;6.47;;;3.50;;
55270;SDS011;41132;47.162;9.470;2022-08-27T11:26:41;5.28;;;3.00;;
55270;SDS011;41132;47.162;9.470;2022-08-27T11:35:21;6.15;;;3.58;;
55270;SDS011;41132;47.162;9.470;2022-08-27T11:40:58;5.38;;;2.92;;
55270;SDS011;41132;47.162;9.470;2022-08-27T11:43:49;5.85;;;3.17;;
55270;SDS011;41132;47.162;9.470;2022-08-27T11:46:24;6.20;;;3.45;;
55270;SDS011;41132;47.162;9.470;2022-08-27T11:49:01;5.65;;;2.88;;
55270;SDS011;41132;47.162;9.470;2022-08-27T11:51:32;5.80;;;3.05;;
55270;SDS011;41132;47.162;9.470;2022-08-27T11:54:02;5.00;;;3.05;;
55270;SDS011;41132;47.162;9.470;2022-08-27T11:56:37;5.95;;;3.65;;
55270;SDS011;41132;47.162;9.470;2022-08-27T11:59:10;6.75;;;3.50;;
55270;SDS011;41132;47.162;9.470;2022-08-27T12:01:44;5.93;;;3.40;;
55270;SDS011;41132;47.162;9.470;2022-08-27T12:07:05;5.55;;;3.38;;
55270;SDS011;41132;47.162;9.470;2022-08-27T12:15:07;7.00;;;4.50;;
55270;SDS011;41132;47.162;9.470;2022-08-27T12:17:44;5.65;;;3.25;;
55270;SDS011;41132;47.162;9.470;2022-08-27T12:28:49;5.47;;;3.15;;
55270;SDS011;41132;47.162;9.470;2022-08-27T12:31:18;5.90;;;3.60;;
55270;SDS011;41132;47.162;9.470;2022-08-27T12:33:47;7.13;;;3.42;;
55270;SDS011;41132;47.162;9.470;2022-08-27T12:36:18;6.20;;;3.50;;
55270;SDS011;41132;47.162;9.470;2022-08-27T12:38:47;5.55;;;3.15;;
55270;SDS011;41132;47.162;9.470;2022-08-27T12:41:24;6.40;;;3.88;;
55270;SDS011;41132;47.162;9.470;2022-08-27T12:44:08;5.60;;;3.30;;
55270;SDS011;41132;47.162;9.470;2022-08-27T12:49:42;5.18;;;2.97;;
55270;SDS011;41132;47.162;9.470;2022-08-27T12:52:46;6.00;;;3.30;;
55270;SDS011;41132;47.162;9.470;2022-08-27T13:02:51;7.05;;;3.08;;
55270;SDS011;41132;47.162;9.470;2022-08-27T13:05:36;5.47;;;2.85;;
55270;SDS011;41132;47.162;9.470;2022-08-27T13:08:03;5.80;;;3.63;;
55270;SDS011;41132;47.162;9.470;2022-08-27T13:10:29;5.53;;;3.13;;
55270;SDS011;41132;47.162;9.470;2022-08-27T13:13:09;6.13;;;3.60;;
55270;SDS011;41132;47.162;9.470;2022-08-27T13:15:42;6.57;;;3.53;;
55270;SDS011;41132;47.162;9.470;2022-08-27T13:20:37;5.45;;;3.10;;
55270;SDS011;41132;47.162;9.470;2022-08-27T13:23:05;6.32;;;3.72;;
55270;SDS011;41132;47.162;9.470;2022-08-27T13:25:37;6.72;;;3.38;;
55270;SDS011;41132;47.162;9.470;2022-08-27T13:28:07;6.25;;;3.83;;
55270;SDS011;41132;47.162;9.470;2022-08-27T13:30:41;6.78;;;3.22;;
55270;SDS011;41132;47.162;9.470;2022-08-27T13:33:13;6.32;;;3.83;;
55270;SDS011;41132;47.162;9.470;2022-08-27T13:35:44;6.65;;;3.63;;
55270;SDS011;41132;47.162;9.470;2022-08-27T13:38:13;5.85;;;3.30;;
55270;SDS011;41132;47.162;9.470;2022-08-27T13:43:20;7.50;;;3.70;;
55270;SDS011;41132;47.162;9.470;2022-08-27T13:45:52;6.15;;;3.40;;
55270;SDS011;41132;47.162;9.470;2022-08-27T13:48:18;6.45;;;3.83;;
55270;SDS011;41132;47.162;9.470;2022-08-27T13:50:50;6.88;;;3.05;;
55270;SDS011;41132;47.162;9.470;2022-08-27T13:53:18;5.65;;;3.15;;
55270;SDS011;41132;47.162;9.470;2022-08-27T13:56:06;6.32;;;3.60;;
55270;SDS011;41132;47.162;9.470;2022-08-27T13:58:32;4.97;;;2.78;;
55270;SDS011;41132;47.162;9.470;2022-08-27T14:01:06;5.82;;;3.10;;
55270;SDS011;41132;47.162;9.470;2022-08-27T14:03:35;5.95;;;3.75;;
55270;SDS011;41132;47.162;9.470;2022-08-27T14:06:09;6.18;;;3.70;;
55270;SDS011;41132;47.162;9.470;2022-08-27T14:08:35;6.15;;;3.45;;
55270;SDS011;41132;47.162;9.470;2022-08-27T14:11:04;6.68;;;3.60;;
55270;SDS011;41132;47.162;9.470;2022-08-27T14:13:36;5.90;;;3.50;;
55270;SDS011;41132;47.162;9.470;2022-08-27T14:16:21;8.88;;;3.42;;
55270;SDS011;41132;47.162;9.470;2022-08-27T14:18:49;6.85;;;4.18;;
55270;SDS011;41132;47.162;9.470;2022-08-27T14:21:17;6.65;;;3.60;;
55270;SDS011;41132;47.162;9.470;2022-08-27T14:23:42;7.20;;;3.92;;
55270;SDS011;41132;47.162;9.470;2022-08-27T14:26:08;6.20;;;3.83;;
55270;SDS011;41132;47.162;9.470;2022-08-27T14:28:33;6.20;;;3.78;;
55270;SDS011;41132;47.162;9.470;2022-08-27T14:30:59;7.28;;;3.83;;
55270;SDS011;41132;47.162;9.470;2022-08-27T14:33:24;7.90;;;4.13;;
55270;SDS011;41132;47.162;9.470;2022-08-27T14:35:50;6.47;;;4.00;;
55270;SDS011;41132;47.162;9.470;2022-08-27T14:40:43;6.32;;;3.85;;
55270;SDS011;41132;47.162;9.470;2022-08-27T14:43:09;7.65;;;3.60;;
55270;SDS011;41132;47.162;9.470;2022-08-27T14:45:36;5.78;;;3.40;;
55270;SDS011;41132;47.162;9.470;2022-08-27T14:48:07;6.18;;;3.50;;
55270;SDS011;41132;47.162;9.470;2022-08-27T14:50:37;6.70;;;3.47;;
55270;SDS011;41132;47.162;9.470;2022-08-27T14:53:03;6.00;;;3.55;;
55270;SDS011;41132;47.162;9.470;2022-08-27T14:55:29;7.47;;;3.65;;
55270;SDS011;41132;47.162;9.470;2022-08-27T14:57:55;9.35;;;3.72;;
55270;SDS011;41132;47.162;9.470;2022-08-27T15:00:21;6.75;;;3.63;;
55270;SDS011;41132;47.162;9.470;2022-08-27T15:02:47;6.10;;;3.35;;
55270;SDS011;41132;47.162;9.470;2022-08-27T15:05:13;6.50;;;3.75;;
55270;SDS011;41132;47.162;9.470;2022-08-27T15:07:39;6.70;;;3.65;;
55270;SDS011;41132;47.162;9.470;2022-08-27T15:10:05;7.20;;;3.80;;
55270;SDS011;41132;47.162;9.470;2022-08-27T15:12:31;6.57;;;3.58;;
55270;SDS011;41132;47.162;9.470;2022-08-27T15:14:57;6.47;;;3.95;;
55270;SDS011;41132;47.162;9.470;2022-08-27T15:17:22;6.45;;;3.67;;
55270;SDS011;41132;47.162;9.470;2022-08-27T15:19:48;6.95;;;3.58;;
55270;SDS011;41132;47.162;9.470;2022-08-27T15:22:15;6.05;;;3.72;;
55270;SDS011;41132;47.162;9.470;2022-08-27T15:24:44;6.45;;;3.40;;
55270;SDS011;41132;47.162;9.470;2022-08-27T15:27:20;7.50;;;3.88;;
55270;SDS011;41132;47.162;9.470;2022-08-27T15:29:46;6.07;;;3.47;;
55270;SDS011;41132;47.162;9.470;2022-08-27T15:32:28;5.80;;;3.42;;
55270;SDS011;41132;47.162;9.470;2022-08-27T15:34:59;6.70;;;3.55;;
55270;SDS011;41132;47.162;9.470;2022-08-27T15:37:28;6.38;;;3.70;;
55270;SDS011;41132;47.162;9.470;2022-08-27T15:39:55;6.38;;;3.30;;
55270;SDS011;41132;47.162;9.470;2022-08-27T15:42:20;8.05;;;3.50;;
55270;SDS011;41132;47.162;9.470;2022-08-27T15:44:47;6.43;;;4.13;;
55270;SDS011;41132;47.162;9.470;2022-08-27T15:47:15;8.75;;;4.38;;
55270;SDS011;41132;47.162;9.470;2022-08-27T15:49:41;8.27;;;4.32;;
55270;SDS011;41132;47.162;9.470;2022-08-27T15:52:06;7.38;;;4.57;;
55270;SDS011;41132;47.162;9.470;2022-08-27T15:54:34;8.20;;;5.07;;
55270;SDS011;41132;47.162;9.470;2022-08-27T15:56:59;7.82;;;5.47;;
55270;SDS011;41132;47.162;9.470;2022-08-27T15:59:25;8.20;;;5.07;;
55270;SDS011;41132;47.162;9.470;2022-08-27T16:01:51;11.93;;;5.95;;
55270;SDS011;41132;47.162;9.470;2022-08-27T16:04:17;9.52;;;5.55;;
55270;SDS011;41132;47.162;9.470;2022-08-27T16:06:42;7.68;;;5.05;;
55270;SDS011;41132;47.162;9.470;2022-08-27T16:09:08;7.88;;;5.18;;
55270;SDS011;41132;47.162;9.470;2022-08-27T16:11:34;8.60;;;5.35;;
55270;SDS011;41132;47.162;9.470;2022-08-27T16:13:59;8.35;;;5.05;;
55270;SDS011;41132;47.162;9.470;2022-08-27T16:16:26;8.45;;;5.47;;
55270;SDS011;41132;47.162;9.470;2022-08-27T16:18:54;7.55;;;4.82;;
55270;SDS011;41132;47.162;9.470;2022-08-27T16:21:20;8.82;;;5.55;;
55270;SDS011;41132;47.162;9.470;2022-08-27T16:23:46;10.93;;;4.75;;
55270;SDS011;41132;47.162;9.470;2022-08-27T16:26:12;8.00;;;4.80;;
55270;SDS011;41132;47.162;9.470;2022-08-27T16:28:37;8.68;;;4.30;;
55270;SDS011;41132;47.162;9.470;2022-08-27T16:31:03;7.72;;;5.15;;
55270;SDS011;41132;47.162;9.470;2022-08-27T16:33:29;7.65;;;5.57;;
55270;SDS011;41132;47.162;9.470;2022-08-27T16:35:55;9.32;;;6.00;;
55270;SDS011;41132;47.162;9.470;2022-08-27T16:38:20;9.15;;;5.70;;
55270;SDS011;41132;47.162;9.470;2022-08-27T16:40:48;7.75;;;5.55;;
55270;SDS011;41132;47.162;9.470;2022-08-27T16:43:17;8.60;;;5.80;;
55270;SDS011;41132;47.162;9.470;2022-08-27T16:45:45;9.02;;;5.57;;
55270;SDS011;41132;47.162;9.470;2022-08-27T16:48:13;7.68;;;5.75;;